createdAt,value
2018-11-03T00:02:24.395Z,102428.29
2018-11-03T00:04:53.119Z,102429.60
2018-11-03T00:07:21.811Z,102436.49
2018-11-03T00:09:50.513Z,102443.81
2018-11-03T00:12:19.220Z,102442.11
2018-11-03T00:14:47.940Z,102436.08
2018-11-03T00:17:16.665Z,102433.95
2018-11-03T00:19:45.591Z,102436.55
2018-11-03T00:22:14.461Z,102436.16
2018-11-03T00:24:43.436Z,102429.27
2018-11-03T00:27:12.166Z,102431.47
2018-11-03T00:29:40.883Z,102425.89
2018-11-03T00:32:09.669Z,102426.75
2018-11-03T00:34:38.385Z,102428.91
2018-11-03T00:37:07.092Z,102424.19
2018-11-03T00:39:35.823Z,102433.25
2018-11-03T00:42:05.225Z,102427.27
2018-11-03T00:44:34.054Z,102426.01
2018-11-03T00:47:02.731Z,102426.91
2018-11-03T00:49:31.428Z,102430.39
2018-11-03T00:52:00.379Z,102439.44
2018-11-03T00:54:29.365Z,102436.50
2018-11-03T00:56:58.062Z,102434.79
2018-11-03T00:59:26.769Z,102429.20
2018-11-03T01:01:55.477Z,102428.77
2018-11-03T01:04:26.096Z,102431.79
2018-11-03T01:06:54.796Z,102435.25
2018-11-03T01:09:24.057Z,102427.52
2018-11-03T01:11:52.760Z,102436.99
2018-11-03T01:14:21.487Z,102438.69
2018-11-03T01:16:52.461Z,102434.86
2018-11-03T01:19:21.272Z,102428.39
2018-11-03T01:21:49.994Z,102440.86
2018-11-03T01:24:18.692Z,102445.16
2018-11-03T01:26:47.404Z,102443.87
2018-11-03T01:29:16.120Z,102443.01
2018-11-03T01:31:44.881Z,102445.16
2018-11-03T01:34:13.598Z,102442.58
2018-11-03T01:36:42.309Z,102439.98
2018-11-03T01:39:11.956Z,102440.83
2018-11-03T01:41:40.697Z,102447.73
2018-11-03T01:44:09.664Z,102448.16
2018-11-03T01:46:38.379Z,102442.58
2018-11-03T01:49:07.111Z,102449.06
2018-11-03T01:51:35.812Z,102449.12
2018-11-03T01:54:05.654Z,102450.02
2018-11-03T01:56:34.383Z,102447.03
2018-11-03T01:59:03.986Z,102442.32
2018-11-03T02:01:32.869Z,102443.64
2018-11-03T02:04:01.598Z,102441.51
2018-11-03T02:06:30.588Z,102438.52
2018-11-03T02:08:59.425Z,102436.81
2018-11-03T02:11:28.132Z,102435.94
2018-11-03T02:13:56.833Z,102437.66
2018-11-03T02:19:05.969Z,102435.55
2018-11-03T02:21:34.668Z,102440.27
2018-11-03T02:24:03.971Z,102442.00
2018-11-03T02:26:32.820Z,102440.25
2018-11-03T02:29:16.944Z,102438.52
2018-11-03T02:31:45.649Z,102435.08
2018-11-03T02:34:14.371Z,102437.23
2018-11-03T02:36:43.090Z,102432.93
2018-11-03T02:39:11.814Z,102430.77
2018-11-03T02:41:40.538Z,102426.92
2018-11-03T02:44:09.249Z,102420.05
2018-11-03T02:46:38.402Z,102425.65
2018-11-03T02:49:07.892Z,102422.67
2018-11-03T02:51:36.596Z,102429.12
2018-11-03T02:54:06.288Z,102422.65
2018-11-03T02:56:34.993Z,102428.67
2018-11-03T02:59:04.278Z,102423.92
2018-11-03T03:01:33.197Z,102421.34
2018-11-03T03:04:01.952Z,102423.92
2018-11-03T03:06:30.841Z,102424.36
2018-11-03T03:08:59.828Z,102432.12
2018-11-03T03:11:28.555Z,102430.83
2018-11-03T03:13:57.329Z,102435.12
2018-11-03T03:16:26.214Z,102439.03
2018-11-03T03:18:55.011Z,102444.21
2018-11-03T03:21:23.708Z,102448.92
2018-11-03T03:23:52.420Z,102452.38
2018-11-03T03:26:21.132Z,102454.98
2018-11-03T03:28:49.923Z,102456.30
2018-11-03T03:31:18.752Z,102449.42
2018-11-03T03:33:47.444Z,102453.71
2018-11-03T03:36:16.170Z,102455.44
2018-11-03T03:38:44.873Z,102457.17
2018-11-03T03:41:13.596Z,102460.16
2018-11-03T03:43:42.300Z,102449.84
2018-11-03T03:46:11.313Z,102456.30
2018-11-03T03:48:40.020Z,102451.52
2018-11-03T03:51:08.836Z,102450.67
2018-11-03T03:53:37.575Z,102446.82
2018-11-03T03:56:06.437Z,102453.70
2018-11-03T03:58:35.144Z,102457.56
2018-11-03T04:01:03.870Z,102469.61
2018-11-03T04:03:32.573Z,102464.92
2018-11-03T04:06:01.272Z,102468.81
2018-11-03T04:08:29.964Z,102472.69
2018-11-03T04:10:59.224Z,102464.09
2018-11-03T04:13:28.104Z,102479.98
2018-11-03T04:15:57.220Z,102476.13
2018-11-03T04:18:25.937Z,102472.27
2018-11-03T04:20:54.655Z,102472.72
2018-11-03T04:23:23.378Z,102469.73
2018-11-03T04:25:52.095Z,102471.45
2018-11-03T04:28:20.819Z,102466.28
2018-11-03T04:30:49.535Z,102470.17
2018-11-03T04:33:18.243Z,102471.45
2018-11-03T04:35:47.195Z,102459.86
2018-11-03T04:38:15.887Z,102465.02
2018-11-03T04:40:44.590Z,102467.59
2018-11-03T04:43:13.655Z,102471.45
2018-11-03T04:45:42.580Z,102462.45
2018-11-03T04:48:11.332Z,102469.78
2018-11-03T04:50:40.081Z,102463.34
2018-11-03T04:53:08.795Z,102461.22
2018-11-03T04:55:37.500Z,102467.66
2018-11-03T04:58:06.221Z,102464.22
2018-11-03T05:00:34.947Z,102475.83
2018-11-03T05:03:03.667Z,102476.67
2018-11-03T05:05:32.744Z,102469.80
2018-11-03T05:08:01.460Z,102468.52
2018-11-03T05:10:30.218Z,102466.81
2018-11-03T05:12:58.901Z,102466.80
2018-11-03T05:15:27.595Z,102466.80
2018-11-03T05:17:56.307Z,102473.24
2018-11-03T05:20:25.033Z,102473.26
2018-11-03T05:22:53.869Z,102485.29
2018-11-03T05:25:22.585Z,102489.16
2018-11-03T05:27:51.644Z,102496.44
2018-11-03T05:30:20.330Z,102483.98
2018-11-03T05:32:49.039Z,102478.82
2018-11-03T05:35:17.752Z,102480.53
2018-11-03T05:37:46.925Z,102485.27
2018-11-03T05:40:15.653Z,102485.28
2018-11-03T05:42:44.376Z,102487.86
2018-11-03T05:45:13.125Z,102487.00
2018-11-03T05:47:41.864Z,102487.83
2018-11-03T05:50:11.264Z,102485.25
2018-11-03T05:52:40.308Z,102486.12
2018-11-03T05:55:09.712Z,102481.84
2018-11-03T05:57:38.692Z,102495.58
2018-11-03T06:00:09.361Z,102492.56
2018-11-03T06:02:38.085Z,102495.16
2018-11-03T06:05:06.926Z,102505.89
2018-11-03T06:07:35.627Z,102500.31
2018-11-03T06:10:05.952Z,102505.05
2018-11-03T06:12:35.219Z,102510.17
2018-11-03T06:15:03.938Z,102508.03
2018-11-03T06:17:32.667Z,102510.63
2018-11-03T06:20:01.364Z,102510.63
2018-11-03T06:22:30.134Z,102518.78
2018-11-03T06:24:59.269Z,102516.62
2018-11-03T06:27:28.461Z,102514.89
2018-11-03T06:29:57.164Z,102516.61
2018-11-03T06:32:26.129Z,102516.62
2018-11-03T06:34:54.829Z,102520.05
2018-11-03T06:37:23.783Z,102521.75
2018-11-03T06:39:52.524Z,102528.19
2018-11-03T06:42:21.217Z,102524.74
2018-11-03T06:44:50.149Z,102530.33
2018-11-03T06:47:18.964Z,102526.88
2018-11-03T06:49:47.655Z,102538.03
2018-11-03T06:52:16.508Z,102529.02
2018-11-03T06:54:45.097Z,102532.47
2018-11-03T06:57:13.793Z,102539.34
2018-11-03T06:59:42.517Z,102536.73
2018-11-03T07:02:11.240Z,102538.43
2018-11-03T07:04:39.949Z,102539.72
2018-11-03T07:07:08.685Z,102541.44
2018-11-03T07:09:37.397Z,102542.72
2018-11-03T07:12:06.465Z,102543.13
2018-11-03T07:14:35.065Z,102546.55
2018-11-03T07:17:03.773Z,102538.84
2018-11-03T07:19:32.484Z,102540.98
2018-11-03T07:22:01.491Z,102539.25
2018-11-03T07:24:30.488Z,102539.23
2018-11-03T07:26:59.473Z,102535.34
2018-11-03T07:29:28.238Z,102532.30
2018-11-03T07:31:57.167Z,102538.73
2018-11-03T07:34:25.873Z,102545.62
2018-11-03T07:36:54.576Z,102533.12
2018-11-03T07:39:23.293Z,102537.86
2018-11-03T07:41:51.993Z,102534.45
2018-11-03T07:44:20.696Z,102534.00
2018-11-03T07:46:49.405Z,102523.69
2018-11-03T07:49:18.586Z,102524.55
2018-11-03T07:51:48.452Z,102528.83
2018-11-03T07:54:17.347Z,102527.93
2018-11-03T07:56:46.320Z,102533.47
2018-11-03T07:59:15.028Z,102527.84
2018-11-03T08:01:43.740Z,102526.94
2018-11-03T08:04:12.455Z,102525.63
2018-11-03T08:06:41.243Z,102535.48
2018-11-03T08:09:10.855Z,102535.86
2018-11-03T08:11:39.723Z,102528.51
2018-11-03T08:14:08.787Z,102522.05
2018-11-03T08:16:37.514Z,102522.00
2018-11-03T08:19:06.227Z,102525.44
2018-11-03T08:21:34.959Z,102520.63
2018-11-03T08:24:03.708Z,102522.34
2018-11-03T08:26:32.387Z,102527.43
2018-11-03T08:29:01.094Z,102530.83
2018-11-03T08:31:29.836Z,102528.66
2018-11-03T08:33:58.532Z,102528.17
2018-11-03T08:36:27.240Z,102522.58
2018-11-03T08:38:56.209Z,102527.71
2018-11-03T08:41:25.119Z,102526.36
2018-11-03T08:43:53.956Z,102523.27
2018-11-03T08:46:22.921Z,102521.52
2018-11-03T08:48:51.947Z,102531.37
2018-11-03T08:51:20.468Z,102529.56
2018-11-03T08:53:49.191Z,102529.48
2018-11-03T08:56:17.923Z,102533.74
2018-11-03T08:58:46.627Z,102524.63
2018-11-03T09:01:15.630Z,102522.81
2018-11-03T09:03:44.332Z,102523.19
2018-11-03T09:06:13.172Z,102527.97
2018-11-03T09:08:42.053Z,102520.09
2018-11-03T09:11:10.772Z,102517.45
2018-11-03T09:13:39.477Z,102517.33
2018-11-03T09:16:08.192Z,102521.10
2018-11-03T09:18:36.933Z,102517.97
2018-11-03T09:21:05.603Z,102504.98
2018-11-03T09:23:35.383Z,102506.13
2018-11-03T09:26:05.280Z,102514.62
2018-11-03T09:28:33.984Z,102505.90
2018-11-03T09:31:02.710Z,102508.77
2018-11-03T09:33:31.512Z,102504.33
2018-11-03T09:36:00.229Z,102498.55
2018-11-03T09:38:29.049Z,102499.68
2018-11-03T09:40:58.020Z,102495.19
2018-11-03T09:43:26.841Z,102496.75
2018-11-03T09:49:34.905Z,102494.77
2018-11-03T09:52:16.564Z,102492.61
2018-11-03T09:54:50.277Z,102494.62
2018-11-03T09:57:33.357Z,102498.39
2018-11-03T10:00:12.869Z,102498.25
2018-11-03T10:02:43.670Z,102501.16
2018-11-03T10:05:15.256Z,102498.05
2018-11-03T10:07:51.471Z,102495.26
2018-11-03T10:10:25.657Z,102498.98
2018-11-03T10:13:08.000Z,102497.09
2018-11-03T10:15:43.055Z,102497.45
2018-11-03T10:18:16.017Z,102500.35
2018-11-03T10:20:48.124Z,102498.50
2018-11-03T10:23:24.277Z,102493.17
2018-11-03T10:25:53.279Z,102492.61
2018-11-03T10:28:30.784Z,102497.63
2018-11-03T10:31:03.398Z,102500.48
2018-11-03T10:33:32.717Z,102496.45
2018-11-03T10:36:06.332Z,102492.89
2018-11-03T10:38:39.624Z,102492.31
2018-11-03T10:41:09.233Z,102493.08
2018-11-03T10:43:38.456Z,102480.81
2018-11-03T10:46:10.189Z,102479.81
2018-11-03T10:48:39.771Z,102480.00
2018-11-03T10:51:10.447Z,102479.89
2018-11-03T10:53:40.655Z,102479.70
2018-11-03T10:58:52.958Z,102471.58
2018-11-03T11:04:14.525Z,102466.95
2018-11-03T11:06:52.339Z,102471.13
2018-11-03T11:09:28.708Z,102464.52
2018-11-03T11:12:03.737Z,102458.73
2018-11-03T11:14:32.613Z,102461.05
2018-11-03T11:17:01.757Z,102458.23
2018-11-03T11:19:32.561Z,102455.39
2018-11-03T11:22:07.220Z,102444.39
2018-11-03T11:24:41.488Z,102440.73
2018-11-03T11:27:16.983Z,102442.25
2018-11-03T11:29:46.056Z,102439.95
2018-11-03T11:35:52.941Z,102444.74
2018-11-03T11:38:21.667Z,102444.14
2018-11-03T11:40:50.382Z,102446.06
2018-11-03T11:43:19.228Z,102437.55
2018-11-03T11:45:47.857Z,102438.19
2018-11-03T11:48:16.555Z,102427.92
2018-11-03T11:50:45.288Z,102423.73
2018-11-03T11:56:13.775Z,102425.39
2018-11-03T11:58:42.773Z,102419.12
2018-11-03T12:01:11.758Z,102418.03
2018-11-03T12:03:40.468Z,102415.61
2018-11-03T12:06:09.480Z,102408.29
2018-11-03T12:08:38.439Z,102403.09
2018-11-03T12:11:07.428Z,102394.33
2018-11-03T12:13:36.171Z,102389.94
2018-11-03T12:16:05.377Z,102387.83
2018-11-03T12:18:34.076Z,102383.83
2018-11-03T12:21:02.785Z,102379.77
2018-11-03T12:23:31.777Z,102378.33
2018-11-03T12:26:00.487Z,102377.95
2018-11-03T12:28:29.262Z,102368.76
2018-11-03T12:30:57.992Z,102369.55
2018-11-03T12:33:26.695Z,102360.94
2018-11-03T12:35:55.412Z,102361.06
2018-11-03T12:38:24.136Z,102364.05
2018-11-03T12:40:53.334Z,102359.98
2018-11-03T12:43:34.127Z,102363.39
2018-11-03T12:46:02.831Z,102361.28
2018-11-03T12:48:31.816Z,102355.17
2018-11-03T12:51:00.881Z,102355.91
2018-11-03T12:53:29.530Z,102344.54
2018-11-03T12:55:58.492Z,102339.50
2018-11-03T12:58:27.197Z,102331.79
2018-11-03T13:00:55.942Z,102331.48
2018-11-03T13:03:24.648Z,102335.09
2018-11-03T13:05:53.377Z,102339.59
2018-11-03T13:08:22.241Z,102336.64
2018-11-03T13:10:51.146Z,102326.61
2018-11-03T13:13:20.252Z,102329.88
2018-11-03T13:15:49.014Z,102324.86
2018-11-03T13:18:17.684Z,102326.38
2018-11-03T13:20:46.673Z,102324.30
2018-11-03T13:23:15.559Z,102320.94
2018-11-03T13:25:44.285Z,102316.64
2018-11-03T13:28:13.042Z,102318.81
2018-11-03T13:30:41.733Z,102312.48
2018-11-03T13:33:10.451Z,102313.55
2018-11-03T13:35:40.211Z,102309.48
2018-11-03T13:38:09.199Z,102302.69
2018-11-03T13:40:37.949Z,102307.78
2018-11-03T13:43:07.512Z,102301.05
2018-11-03T13:45:36.225Z,102294.03
2018-11-03T13:48:05.566Z,102298.50
2018-11-03T13:50:34.272Z,102298.39
2018-11-03T13:53:03.157Z,102293.81
2018-11-03T13:55:32.124Z,102297.44
2018-11-03T13:58:00.840Z,102298.88
2018-11-03T14:00:29.552Z,102290.96
2018-11-03T14:02:58.524Z,102288.34
2018-11-03T14:05:27.248Z,102284.25
2018-11-03T14:07:55.943Z,102282.75
2018-11-03T14:10:24.903Z,102281.55
2018-11-03T14:12:53.598Z,102280.73
2018-11-03T14:15:22.320Z,102272.36
2018-11-03T14:17:51.046Z,102274.84
2018-11-03T14:20:19.765Z,102276.07
2018-11-03T14:23:06.256Z,102278.63
2018-11-03T14:25:35.056Z,102279.67
2018-11-03T14:28:04.770Z,102275.52
2018-11-03T14:30:33.446Z,102270.03
2018-11-03T14:33:02.141Z,102274.61
2018-11-03T14:35:32.003Z,102268.19
2018-11-03T14:38:00.731Z,102271.80
2018-11-03T14:40:29.455Z,102268.50
2018-11-03T14:42:58.360Z,102267.48
2018-11-03T14:45:27.147Z,102263.16
2018-11-03T14:47:55.825Z,102262.78
2018-11-03T14:50:29.232Z,102262.37
2018-11-03T14:55:57.680Z,102259.89
2018-11-03T14:58:32.016Z,102252.47
2018-11-03T15:01:00.741Z,102248.86
2018-11-03T15:03:29.473Z,102244.53
2018-11-03T15:05:58.192Z,102247.85
2018-11-03T15:08:28.172Z,102239.75
2018-11-03T15:10:56.793Z,102238.72
2018-11-03T15:13:25.639Z,102240.54
2018-11-03T15:15:54.320Z,102245.98
2018-11-03T15:18:23.889Z,102241.00
2018-11-03T15:20:52.616Z,102238.28
2018-11-03T15:23:21.364Z,102241.97
2018-11-03T15:25:50.075Z,102240.03
2018-11-03T15:28:18.832Z,102246.14
2018-11-03T15:30:47.565Z,102246.71
2018-11-03T15:33:24.683Z,102240.03
2018-11-03T15:36:02.597Z,102232.09
2018-11-03T15:38:49.525Z,102227.98
2018-11-03T15:41:30.915Z,102230.87
2018-11-03T15:43:59.889Z,102227.45
2018-11-03T15:46:28.999Z,102222.70
2018-11-03T15:48:57.713Z,102223.11
2018-11-03T15:51:45.508Z,102212.20
2018-11-03T15:54:21.502Z,102217.28
2018-11-03T15:56:50.214Z,102217.02
2018-11-03T15:59:18.921Z,102215.53
2018-11-03T16:01:47.639Z,102206.61
2018-11-03T16:07:11.706Z,102201.86
2018-11-03T16:09:40.516Z,102195.50
2018-11-03T16:12:09.315Z,102197.36
2018-11-03T16:14:48.635Z,102193.17
2018-11-03T16:17:17.361Z,102195.47
2018-11-03T16:22:39.052Z,102190.90
2018-11-03T16:25:11.040Z,102197.14
2018-11-03T16:27:40.307Z,102191.25
2018-11-03T16:30:11.917Z,102188.91
2018-11-03T16:32:48.885Z,102186.49
2018-11-03T16:38:27.619Z,102184.38
2018-11-03T16:41:11.168Z,102183.73
2018-11-03T16:43:39.983Z,102172.71
2018-11-03T16:46:09.612Z,102177.71
2018-11-03T16:48:38.399Z,102170.09
2018-11-03T16:51:07.088Z,102174.11
2018-11-03T16:53:36.279Z,102176.02
2018-11-03T16:56:05.121Z,102171.01
2018-11-03T16:58:33.864Z,102174.63
2018-11-03T17:01:05.414Z,102166.15
2018-11-03T17:03:34.396Z,102163.67
2018-11-03T17:06:03.121Z,102169.45
2018-11-03T17:08:31.836Z,102159.22
2018-11-03T17:11:00.561Z,102159.27
2018-11-03T17:13:29.484Z,102148.63
2018-11-03T17:15:58.180Z,102154.80
2018-11-03T17:18:26.960Z,102155.72
2018-11-03T17:20:55.628Z,102150.25
2018-11-03T17:23:24.469Z,102148.23
2018-11-03T17:25:53.168Z,102144.89
2018-11-03T17:28:22.041Z,102145.90
2018-11-03T17:30:50.748Z,102142.12
2018-11-03T17:33:19.523Z,102145.29
2018-11-03T17:35:48.328Z,102136.75
2018-11-03T17:38:17.031Z,102135.59
2018-11-03T17:40:45.732Z,102140.88
2018-11-03T17:43:14.538Z,102134.45
2018-11-03T17:45:43.189Z,102134.61
2018-11-03T17:48:11.898Z,102127.45
2018-11-03T17:50:40.988Z,102123.22
2018-11-03T17:53:09.683Z,102130.67
2018-11-03T17:55:38.396Z,102123.47
2018-11-03T17:58:07.107Z,102125.77
2018-11-03T18:00:36.022Z,102127.59
2018-11-03T18:03:05.630Z,102126.86
2018-11-03T18:05:34.624Z,102126.05
2018-11-03T18:08:03.343Z,102128.78
2018-11-03T18:10:32.044Z,102123.73
2018-11-03T18:13:00.799Z,102118.59
2018-11-03T18:15:29.466Z,102116.09
2018-11-03T18:17:58.318Z,102114.50
2018-11-03T18:20:28.477Z,102115.55
2018-11-03T18:22:58.141Z,102119.08
2018-11-03T18:25:26.851Z,102113.64
2018-11-03T18:27:55.556Z,102123.52
2018-11-03T18:30:24.268Z,102113.72
2018-11-03T18:32:53.013Z,102117.66
2018-11-03T18:35:21.712Z,102111.27
2018-11-03T18:37:50.656Z,102114.45
2018-11-03T18:40:19.319Z,102116.69
2018-11-03T18:42:48.565Z,102112.89
2018-11-03T18:45:17.289Z,102114.69
2018-11-03T18:47:46.836Z,102112.66
2018-11-03T18:50:15.840Z,102110.63
2018-11-03T18:52:44.857Z,102115.88
2018-11-03T18:55:13.860Z,102105.17
2018-11-03T18:57:42.857Z,102096.19
2018-11-03T19:00:11.784Z,102096.62
2018-11-03T19:02:40.929Z,102098.39
2018-11-03T19:05:09.957Z,102096.28
2018-11-03T19:07:39.149Z,102096.70
2018-11-03T19:10:08.816Z,102098.91
2018-11-03T19:12:37.524Z,102100.67
2018-11-03T19:15:06.972Z,102097.25
2018-11-03T19:17:35.676Z,102096.86
2018-11-03T19:20:05.683Z,102091.73
2018-11-03T19:22:35.455Z,102084.04
2018-11-03T19:25:05.649Z,102089.25
2018-11-03T19:27:34.363Z,102084.55
2018-11-03T19:30:03.691Z,102081.13
2018-11-03T19:32:32.372Z,102072.12
2018-11-03T19:35:01.093Z,102074.31
2018-11-03T19:37:29.801Z,102070.91
2018-11-03T19:39:58.547Z,102069.22
2018-11-03T19:42:27.252Z,102067.10
2018-11-03T19:44:56.019Z,102066.74
2018-11-03T19:47:24.996Z,102062.50
2018-11-03T19:49:53.789Z,102062.55
2018-11-03T19:52:22.785Z,102054.79
2018-11-03T19:54:51.493Z,102055.72
2018-11-03T19:57:20.217Z,102049.73
2018-11-03T19:59:48.940Z,102054.53
2018-11-03T20:02:18.459Z,102054.57
2018-11-03T20:04:47.095Z,102054.21
2018-11-03T20:07:15.809Z,102057.69
2018-11-03T20:09:44.552Z,102048.72
2018-11-03T20:12:13.264Z,102046.17
2018-11-03T20:14:41.987Z,102043.22
2018-11-03T20:17:11.096Z,102038.92
2018-11-03T20:19:41.010Z,102027.79
2018-11-03T20:22:09.704Z,102031.73
2018-11-03T20:24:38.452Z,102033.45
2018-11-03T20:27:07.193Z,102023.63
2018-11-03T20:29:37.057Z,102025.84
2018-11-03T20:32:05.793Z,102028.03
2018-11-03T20:34:34.736Z,102022.03
2018-11-03T20:37:03.723Z,102021.64
2018-11-03T20:39:32.443Z,102019.52
2018-11-03T20:42:01.238Z,102019.98
2018-11-03T20:44:29.859Z,102017.00
2018-11-03T20:46:58.779Z,102012.30
2018-11-03T20:49:27.496Z,102008.95
2018-11-03T20:51:56.440Z,102011.17
2018-11-03T20:54:26.002Z,102009.08
2018-11-03T20:56:54.716Z,102005.70
2018-11-03T20:59:23.424Z,102000.61
2018-11-03T21:01:52.158Z,101991.20
2018-11-03T21:04:21.096Z,101991.27
2018-11-03T21:06:49.815Z,101998.27
2018-11-03T21:09:18.788Z,101998.33
2018-11-03T21:11:47.498Z,101995.35
2018-11-03T21:14:16.223Z,101990.19
2018-11-03T21:16:46.006Z,101992.77
2018-11-03T21:19:15.353Z,101981.16
2018-11-03T21:21:44.357Z,101975.63
2018-11-03T21:24:13.435Z,101976.92
2018-11-03T21:26:42.074Z,101977.81
2018-11-03T21:29:11.255Z,101977.41
2018-11-03T21:31:40.013Z,101974.42
2018-11-03T21:34:08.703Z,101972.30
2018-11-03T21:36:37.418Z,101962.41
2018-11-03T21:39:07.903Z,101956.83
2018-11-03T21:41:36.629Z,101961.59
2018-11-03T21:44:05.528Z,101960.33
2018-11-03T21:46:34.373Z,101955.56
2018-11-03T21:49:03.205Z,101951.27
2018-11-03T21:51:31.911Z,101943.55
2018-11-03T21:54:00.635Z,101945.73
2018-11-03T21:56:29.628Z,101943.16
2018-11-03T21:58:58.611Z,101941.03
2018-11-03T22:01:27.840Z,101936.73
2018-11-03T22:03:56.797Z,101938.45
2018-11-03T22:06:25.643Z,101938.45
2018-11-03T22:08:55.228Z,101927.70
2018-11-03T22:11:24.189Z,101932.00
2018-11-03T22:13:53.196Z,101928.14
2018-11-03T22:16:21.907Z,101928.56
2018-11-03T22:18:50.855Z,101920.89
2018-11-03T22:21:19.857Z,101914.01
2018-11-03T22:23:48.596Z,101910.17
2018-11-03T22:26:17.332Z,101911.03
2018-11-03T22:28:46.243Z,101905.05
2018-11-03T22:31:14.943Z,101896.05
2018-11-03T22:33:43.907Z,101886.62
2018-11-03T22:36:12.623Z,101889.20
2018-11-03T22:38:41.580Z,101884.50
2018-11-03T22:41:10.288Z,101870.37
2018-11-03T22:43:39.243Z,101869.98
2018-11-03T22:46:07.953Z,101870.01
2018-11-03T22:48:36.684Z,101865.71
2018-11-03T22:51:05.447Z,101864.85
2018-11-03T22:53:34.132Z,101859.27
2018-11-03T22:56:03.288Z,101860.16
2018-11-03T22:58:32.281Z,101858.44
2018-11-03T23:01:01.016Z,101849.44
2018-11-03T23:03:30.454Z,101846.03
2018-11-03T23:05:59.150Z,101843.09
2018-11-03T23:08:27.844Z,101838.39
2018-11-03T23:10:56.624Z,101832.77
2018-11-03T23:13:25.429Z,101825.53
2018-11-03T23:15:54.302Z,101829.86
2018-11-03T23:18:23.013Z,101826.87
2018-11-03T23:20:51.712Z,101812.34
2018-11-03T23:23:20.420Z,101817.95
2018-11-03T23:25:49.114Z,101809.78
2018-11-03T23:28:18.026Z,101809.39
2018-11-03T23:30:46.741Z,101801.72
2018-11-03T23:33:15.551Z,101796.99
2018-11-03T23:35:44.272Z,101791.90
2018-11-03T23:38:12.992Z,101779.93
2018-11-03T23:40:41.727Z,101785.94
2018-11-03T23:43:10.439Z,101785.14
2018-11-03T23:45:39.160Z,101783.42
2018-11-03T23:48:08.168Z,101779.62
2018-11-03T23:50:36.884Z,101779.25
2018-11-03T23:53:05.610Z,101779.77
2018-11-03T23:55:34.299Z,101771.30
2018-11-03T23:58:03.012Z,101774.46
